Flight Track Log - Related Links

Times and Time Zones

All times are in EDT time to prevent confusion due to time zone crossing. See the EJA396 flight status page for this flight to view local times or setup timezone preferences in your user account.

Time Position Orientation Groundspeed Altitude Reporting Facility
EDT Latitude Longitude Course Direction KTS MPH feet Rate Location/Type
Thu 12:50:43 PM 42.3667 -70.9833 77° East 161 185 500  Level KA90
Thu 12:52:02 PM 42.3833 -70.8833 77° East 244 281 4,400 3,169 Climbing KA90
Thu 12:53:41 PM 42.4403 -70.7689 56° Northeast 293 337 9,900 3,488 Climbing Boston Center
Thu 12:54:42 PM 42.5242 -70.8175 337° Northwest 222 255 13,700 3,372 Climbing Boston Center
Thu 12:55:42 PM 42.5778 -70.9119 308° West 238 274 16,700 2,949 Climbing Boston Center
Thu 12:56:40 PM 42.6311 -71.0067 307° West 309 356 19,500 2,339 Climbing Boston Center
Thu 12:57:40 PM 42.6864 -71.1069 307° West 327 376 21,300 1,983 Climbing Boston Center
Thu 12:58:41 PM 42.7461 -71.2131 307° West 347 399 23,500 1,983 Climbing Boston Center
Thu 12:59:41 PM 42.7869 -71.3339 295° West 352 405 25,300 1,835 Climbing Boston Center
Thu 01:00:42 PM 42.7983 -71.4611 277° West 358 412 27,200 1,934 Climbing Boston Center
Thu 01:01:42 PM 42.8119 -71.5967 278° West 371 427 29,200 2,136 Climbing Boston Center
Thu 01:02:40 PM 42.8256 -71.7325 278° West 371 427 31,400 2,319 Climbing Boston Center
Thu 01:03:41 PM 42.8386 -71.8569 278° West 360 414 33,800 2,033 Climbing Boston Center
Thu 01:04:41 PM 42.8497 -71.9814 277° West 350 403 35,500 1,500 Climbing Boston Center
Thu 01:05:41 PM 42.8606 -72.1058 277° West 339 390 36,800 1,140 Climbing Boston Center
Thu 01:06:42 PM 42.8711 -72.2306 277° West 333 383 37,800 1,000 Climbing Boston Center
Thu 01:07:41 PM 42.8839 -72.3550 278° West 333 383 38,800 800 Climbing Boston Center
Thu 01:08:42 PM 42.8964 -72.4797 278° West 333 383 39,400 545 Climbing Boston Center
Thu 01:09:42 PM 42.9089 -72.6103 277° West 338 389 39,900 308 Climbing Boston Center
Thu 01:10:39 PM 42.9147 -72.7378 274° West 352 405 40,000 34 Climbing Boston Center
Thu 01:12:00 PM 42.9265 -72.9285 277° West  Level FlightAware Approximate
Thu 01:12:41 PM 42.9428 -73.0414 277° West 385 443 40,000  Level Boston Center
Thu 01:13:41 PM 42.9564 -73.1947 277° West 401 461 40,000  Level Boston Center
Thu 01:14:42 PM 42.9614 -73.3622 272° West 406 467 40,000 252 Level Boston Center
Thu 01:15:40 PM 42.9394 -73.5092 259° West 401 461 40,500 504 Climbing Boston Center
Thu 01:16:41 PM 42.9275 -73.6622 264° West 401 461 41,000 443 Climbing Boston Center
Thu 01:17:42 PM 42.9194 -73.8094 266° West 401 461 41,400 446 Climbing Boston Center
Thu 01:18:42 PM 42.9114 -73.9539 266° West 401 461 41,900 462 Climbing Boston Center
Thu 01:19:39 PM 42.9014 -74.0669 263° West 389 448 42,300 407 Climbing Boston Center
Thu 01:20:40 PM 42.8928 -74.2369 266° West 383 441 42,700 347 Climbing Boston Center
Thu 01:21:40 PM 42.8842 -74.3756 265° West 378 435 43,000 149 Climbing Boston Center
Thu 01:22:41 PM 42.8753 -74.5197 265° West 378 435 43,000  Level Boston Center
Thu 01:23:41 PM 42.8664 -74.6581 265° West 384 442 43,000  Level Boston Center
Thu 01:24:42 PM 42.8550 -74.8078 264° West 384 442 43,000  Level Boston Center
Thu 01:25:42 PM 42.8436 -74.9519 264° West 384 442 43,000  Level Boston Center
Thu 01:26:42 PM 42.8319 -75.0986 264° West 384 442 43,000  Level Boston Center
Thu 01:27:40 PM 42.8222 -75.2428 265° West 384 442 43,000  Level Boston Center
Thu 01:28:40 PM 42.8131 -75.3669 264° West 384 442 43,000  Level Boston Center
Thu 01:29:41 PM 42.8028 -75.5106 264° West 384 442 43,000  Level Boston Center
Thu 01:30:41 PM 42.7928 -75.6517 265° West 384 442 43,000  Level Boston Center
Thu 01:31:42 PM 42.7803 -75.7953 263° West 384 442 43,000  Level Boston Center
Thu 01:32:40 PM 42.7697 -75.9333 264° West 384 442 43,000  Level Boston Center
Thu 01:33:41 PM 42.7592 -76.0772 264° West 384 442 43,000  Level Boston Center
Thu 01:36:04 PM 42.7289 -76.4136 263° West 387 445 43,000  Level Cleveland Center
Thu 01:37:04 PM 42.7172 -76.5531 264° West 382 440 43,000  Level Cleveland Center
Thu 01:38:04 PM 42.7053 -76.6950 264° West 382 440 43,000  Level Cleveland Center
Thu 01:39:04 PM 42.6933 -76.8342 263° West 377 434 43,000  Level Cleveland Center
Thu 01:40:04 PM 42.6808 -76.9706 263° West 377 434 43,000  Level Cleveland Center
Thu 01:41:04 PM 42.6686 -77.1125 263° West 372 428 43,000  Level Cleveland Center
Thu 01:42:04 PM 42.6558 -77.2489 263° West 372 428 43,000  Level Cleveland Center
Thu 01:43:04 PM 42.6431 -77.3878 263° West 372 428 43,000  Level Cleveland Center
Thu 01:44:04 PM 42.6283 -77.5353 262° West 379 436 43,000  Level Cleveland Center
Thu 01:45:04 PM 42.6111 -77.6744 261° West 384 442 43,000  Level Cleveland Center
Thu 01:46:04 PM 42.6003 -77.8272 265° West 384 442 43,000  Level Cleveland Center
Thu 01:47:04 PM 42.5869 -77.9717 263° West 389 448 43,000  Level Cleveland Center
Thu 01:48:04 PM 42.5733 -78.1078 262° West 389 448 43,000  Level Cleveland Center
Thu 01:49:04 PM 42.5597 -78.2492 263° West 389 448 43,000  Level Cleveland Center
Thu 01:50:04 PM 42.5456 -78.3850 262° West 383 441 43,000  Level Cleveland Center
Thu 01:51:04 PM 42.5317 -78.5292 263° West 383 441 43,000  Level Cleveland Center
Thu 01:52:04 PM 42.5153 -78.6650 261° West 383 441 43,000  Level Cleveland Center
Thu 01:53:04 PM 42.5008 -78.8061 262° West 383 441 43,000  Level Cleveland Center
Thu 01:54:04 PM 42.4861 -78.9444 262° West 383 441 43,000  Level Cleveland Center
Thu 01:55:04 PM 42.4733 -79.0856 263° West 378 435 43,000  Level Cleveland Center
Thu 01:56:04 PM 42.4561 -79.2100 259° West 378 435 43,000  Level Cleveland Center
Thu 01:57:04 PM 42.4431 -79.3481 263° West 378 435 43,000  Level Cleveland Center
Thu 01:58:04 PM 42.4258 -79.4861 260° West 378 435 43,000  Level Cleveland Center
Thu 01:59:05 PM 42.4083 -79.6242 260° West 373 429 43,000  Level Cleveland Center
Thu 02:00:04 PM 42.3947 -79.7622 262° West 373 429 43,000  Level Cleveland Center
Thu 02:01:04 PM 42.3769 -79.8975 260° West 373 429 43,000  Level Cleveland Center
Thu 02:03:04 PM 42.3469 -80.1758 262° West 379 436 43,000  Level Cleveland Center
Thu 02:04:04 PM 42.3286 -80.3192 260° West 374 430 43,000  Level Cleveland Center
Thu 02:05:04 PM 42.3081 -80.4681 259° West 374 430 43,000  Level Cleveland Center
Thu 02:06:04 PM 42.2933 -80.6083 262° West 374 430 43,000  Level Cleveland Center
Thu 02:07:04 PM 42.2747 -80.7431 259° West 374 430 43,000  Level Cleveland Center
Thu 02:08:04 PM 42.2578 -80.8833 261° West 374 430 43,000  Level Cleveland Center
Thu 02:09:04 PM 42.2406 -81.0206 260° West 374 430 43,000  Level Cleveland Center
Thu 02:10:04 PM 42.2233 -81.1581 260° West 374 430 43,000  Level Cleveland Center
Thu 02:11:04 PM 42.2058 -81.2922 260° West 374 430 43,000  Level Cleveland Center
Thu 02:12:04 PM 42.1883 -81.4294 260° West 374 430 43,000  Level Cleveland Center
Thu 02:13:04 PM 42.1706 -81.5664 260° West 374 430 43,000  Level Cleveland Center
Thu 02:14:04 PM 42.1525 -81.7033 260° West 374 430 43,000  Level Cleveland Center
Thu 02:15:04 PM 42.1344 -81.8431 260° West 374 430 43,000  Level Cleveland Center
Thu 02:16:04 PM 42.1164 -81.9631 259° West 374 430 43,000  Level Cleveland Center
Thu 02:17:04 PM 42.0978 -82.1028 260° West 369 425 43,000  Level Cleveland Center
Thu 02:18:04 PM 42.0836 -82.2367 262° West 374 430 43,000  Level Cleveland Center
Thu 02:19:04 PM 42.0564 -82.3758 255° West 374 430 43,000  Level Cleveland Center
Thu 02:20:04 PM 42.0372 -82.5233 260° West 374 430 43,000  Level Cleveland Center
Thu 02:21:04 PM 42.0203 -82.6597 261° West 374 430 43,000  Level Cleveland Center
Thu 02:22:04 PM 41.9992 -82.7961 258° West 374 430 43,000  Level Cleveland Center
Thu 02:23:04 PM 41.9775 -82.9350 258° West 374 430 43,000  Level Cleveland Center
Thu 02:24:04 PM 41.9581 -83.0711 259° West 374 430 43,000  Level Cleveland Center
Thu 02:25:04 PM 41.9383 -83.2100 259° West 374 430 43,000  Level Cleveland Center
Thu 02:26:04 PM 41.9183 -83.3486 259° West 379 436 43,000  Level Cleveland Center
Thu 02:27:04 PM 41.8983 -83.4844 259° West 374 430 43,000  Level Cleveland Center
Thu 02:28:04 PM 41.8758 -83.6203 258° West 374 430 43,000  Level Cleveland Center
Thu 02:29:04 PM 41.8578 -83.7558 260° West 374 430 43,000  Level Cleveland Center
Thu 02:30:04 PM 41.8372 -83.8914 259° West 374 430 43,000  Level Cleveland Center
Thu 02:31:41 PM 41.8075 -84.0944 259° West 373 429 43,000  Level Chicago Center
Thu 02:32:44 PM 41.7856 -84.2306 258° West 373 429 43,000  Level Chicago Center
Thu 02:33:46 PM 41.7650 -84.3656 259° West 372 428 43,000  Level Chicago Center
Thu 02:34:48 PM 41.7386 -84.5292 258° West 375 432 43,000  Level Chicago Center
Thu 02:35:50 PM 41.7167 -84.6667 258° West 378 435 43,000  Level Chicago Center
Thu 02:36:52 PM 41.6944 -84.8033 258° West 378 435 43,000  Level Chicago Center
Thu 02:37:54 PM 41.6725 -84.9406 258° West 378 435 43,000  Level Chicago Center
Thu 02:38:56 PM 41.6500 -85.0775 258° West 378 435 43,000  Level Chicago Center
Thu 02:39:58 PM 41.6264 -85.2139 257° West 376 433 43,000  Level Chicago Center
Thu 02:41:00 PM 41.6022 -85.3586 257° West 382 440 43,000  Level Chicago Center
Thu 02:42:02 PM 41.5744 -85.5242 257° West 383 441 43,000  Level Chicago Center
Thu 02:43:04 PM 41.5492 -85.6714 257° West 386 444 43,000  Level Chicago Center
Thu 02:44:06 PM 41.5256 -85.8086 257° West 381 438 43,000  Level Chicago Center
Thu 02:45:09 PM 41.5025 -85.9456 257° West 379 436 43,000  Level Chicago Center
Thu 02:46:11 PM 41.4786 -86.0808 257° West 379 436 43,000  Level Chicago Center
Thu 02:48:15 PM 41.4311 -86.3519 257° West 375 432 43,000  Level Chicago Center
Thu 02:49:17 PM 41.4031 -86.5125 257° West 375 432 43,000  Level Chicago Center
Thu 02:50:19 PM 41.3792 -86.6464 257° West 372 428 43,000  Level Chicago Center
Thu 02:51:21 PM 41.3544 -86.7817 256° West 376 433 43,000  Level Chicago Center
Thu 02:52:23 PM 41.3300 -86.9167 256° West 377 434 43,000  Level Chicago Center
Thu 02:53:25 PM 41.3058 -87.0514 257° West 376 433 43,000  Level Chicago Center
Thu 02:54:27 PM 41.2806 -87.1858 256° West 377 434 43,000  Level Chicago Center
Thu 02:55:29 PM 41.2503 -87.3481 256° West 377 434 43,000  Level Chicago Center
Thu 02:56:31 PM 41.2281 -87.4700 256° West 382 440 43,000  Level Chicago Center
Thu 02:57:34 PM 41.2031 -87.6056 256° West 379 436 43,000  Level Chicago Center
Thu 02:58:36 PM 41.1708 -87.7692 255° West 382 440 43,000  Level Chicago Center
Thu 02:59:38 PM 41.1453 -87.9072 256° West 385 443 43,000  Level Chicago Center
Thu 03:00:40 PM 41.1175 -88.0433 255° West 384 442 43,000  Level Chicago Center
Thu 03:01:42 PM 41.0914 -88.1792 256° West 381 438 43,000  Level Chicago Center
Thu 03:02:44 PM 41.0644 -88.3147 255° West 380 437 43,000  Level Chicago Center
Thu 03:03:46 PM 41.0322 -88.4767 255° West 378 435 43,000  Level Chicago Center
Thu 03:04:48 PM 41.0061 -88.6139 256° West 382 440 43,000  Level Chicago Center
Thu 03:05:50 PM 40.9800 -88.7489 256° West 380 437 43,000  Level Chicago Center
Thu 03:06:53 PM 40.9522 -88.8858 255° West 384 442 43,000  Level Chicago Center
Thu 03:08:28 PM 40.9064 -89.1008 254° West 381 438 43,000  Level Kansas City Center
Thu 03:09:29 PM 40.8797 -89.2369 256° West 383 441 43,000  Level Kansas City Center
Thu 03:09:59 PM 40.8633 -89.3194 255° West 383 441 43,000  Level Chicago Center
Thu 03:11:01 PM 40.8361 -89.4522 255° West 378 435 43,000  Level Chicago Center
Thu 03:12:04 PM 40.8081 -89.5858 255° West 379 436 43,000  Level Chicago Center
Thu 03:13:06 PM 40.7800 -89.7200 255° West 381 438 43,000  Level Chicago Center
Thu 03:14:08 PM 40.7472 -89.8706 254° West 375 432 43,000  Level Chicago Center
Thu 03:15:10 PM 40.7217 -90.0028 256° West 396 456 43,000  Level Chicago Center
Thu 03:16:12 PM 40.6936 -90.1286 254° West 369 425 43,000  Level Chicago Center
Thu 03:17:14 PM 40.6661 -90.2569 254° West 366 421 43,000  Level Chicago Center
Thu 03:18:16 PM 40.6386 -90.3847 254° West 364 419 43,000  Level Chicago Center
Thu 03:19:18 PM 40.6103 -90.5111 254° West 362 417 43,000  Level Chicago Center
Thu 03:20:20 PM 40.5769 -90.6642 254° West 364 419 43,000  Level Chicago Center
Thu 03:21:23 PM 40.5494 -90.7922 254° West 365 420 43,000  Level Chicago Center
Thu 03:23:08 PM 40.5025 -90.9978 253° West 367 422 43,000  Level Kansas City Center
Thu 03:24:09 PM 40.4675 -91.1508 253° West 367 422 43,000  Level Kansas City Center
Thu 03:25:13 PM 40.4397 -91.2814 254° West 370 426 43,000  Level Kansas City Center
Thu 03:26:14 PM 40.4111 -91.4025 253° West 371 427 43,000  Level Kansas City Center
Thu 03:27:17 PM 40.3817 -91.5306 253° West 371 427 43,000  Level Kansas City Center
Thu 03:28:19 PM 40.3456 -91.6839 253° West 370 426 43,000  Level Kansas City Center
Thu 03:29:19 PM 40.3169 -91.8131 254° West 371 427 43,000  Level Kansas City Center
Thu 03:30:23 PM 40.2878 -91.9414 253° West 370 426 43,000  Level Kansas City Center
Thu 03:31:23 PM 40.2581 -92.0706 253° West 373 429 43,000  Level Kansas City Center
Thu 03:32:27 PM 40.2281 -92.1969 253° West 369 425 43,000  Level Kansas City Center
Thu 03:33:28 PM 40.1914 -92.3494 253° West 367 422 43,000  Level Kansas City Center
Thu 03:34:31 PM 40.1594 -92.4742 252° West 362 417 43,000  Level Kansas City Center
Thu 03:35:32 PM 40.1314 -92.5983 254° West 368 423 43,000  Level Kansas City Center
Thu 03:36:35 PM 40.1028 -92.7392 255° West 361 415 43,000  Level Kansas City Center
Thu 03:37:37 PM 40.0758 -92.8617 254° West 364 419 43,000  Level Kansas City Center
Thu 03:38:37 PM 40.0486 -92.9864 254° West 365 420 43,000  Level Kansas City Center
Thu 03:39:41 PM 40.0211 -93.1131 254° West 365 420 43,000  Level Kansas City Center
Thu 03:40:41 PM 39.9878 -93.2669 254° West 369 425 43,000  Level Kansas City Center
Thu 03:42:00 PM 39.9390 -93.4311 249° West  Level FlightAware Approximate
Thu 03:42:46 PM 39.9289 -93.5206 249° West 369 425 43,000  Level Kansas City Center
Thu 03:43:50 PM 39.9022 -93.6469 255° West 367 422 43,000  Level Kansas City Center
Thu 03:44:51 PM 39.8742 -93.7725 254° West 365 420 43,000  Level Kansas City Center
Thu 03:45:54 PM 39.8400 -93.9225 254° West 363 418 43,000  Level Kansas City Center
Thu 03:46:55 PM 39.8119 -94.0467 254° West 361 415 43,000  Level Kansas City Center
Thu 03:47:55 PM 39.7811 -94.1767 253° West 360 414 43,000  Level Kansas City Center
Thu 03:49:00 PM 39.7536 -94.2958 253° West 361 415 43,000  Level Kansas City Center
Thu 03:50:01 PM 39.7217 -94.4375 254° West 366 421 43,000  Level Kansas City Center
Thu 03:51:02 PM 39.6939 -94.5569 253° West 363 418 43,000  Level Kansas City Center
Thu 03:52:06 PM 39.6611 -94.6975 253° West 365 420 43,000  Level Kansas City Center
Thu 03:53:07 PM 39.6328 -94.8183 253° West 367 422 43,000  Level Kansas City Center
Thu 03:54:08 PM 39.5994 -94.9592 253° West 366 421 43,000  Level Kansas City Center
Thu 03:55:11 PM 39.5708 -95.0783 253° West 365 420 43,000  Level Kansas City Center
Thu 03:56:12 PM 39.5447 -95.2217 257° West 363 418 43,000  Level Kansas City Center
Thu 03:57:16 PM 39.5222 -95.3589 258° West 362 417 43,000  Level Kansas City Center
Thu 03:58:16 PM 39.5014 -95.4844 258° West 368 423 43,000  Level Kansas City Center
Thu 03:59:20 PM 39.4803 -95.6072 257° West 367 422 43,000  Level Kansas City Center
Thu 04:00:20 PM 39.4569 -95.7503 258° West 366 421 43,000  Level Kansas City Center
Thu 04:01:24 PM 39.4353 -95.8731 257° West 367 422 43,000  Level Kansas City Center
Thu 04:02:25 PM 39.4125 -96.0167 258° West 366 421 43,000  Level Kansas City Center
Thu 04:03:29 PM 39.3903 -96.1408 257° West 371 427 43,000  Level Kansas City Center
Thu 04:04:30 PM 39.3675 -96.2678 257° West 371 427 43,000  Level Kansas City Center
Thu 04:05:30 PM 39.3456 -96.3978 258° West 371 427 43,000  Level Kansas City Center
Thu 04:06:34 PM 39.3186 -96.5564 258° West 372 428 43,000  Level Kansas City Center
Thu 04:07:36 PM 39.2975 -96.6803 258° West 372 428 43,000  Level Kansas City Center
Thu 04:08:39 PM 39.2708 -96.8264 257° West 372 428 43,000  Level Kansas City Center
Thu 04:09:40 PM 39.2492 -96.9492 257° West 370 426 43,000  Level Kansas City Center
Thu 04:10:41 PM 39.2231 -97.0933 257° West 370 426 43,000  Level Kansas City Center
Thu 04:11:45 PM 39.2019 -97.2183 258° West 371 427 43,000  Level Kansas City Center
Thu 04:12:46 PM 39.1761 -97.3611 257° West 366 421 43,000  Level Kansas City Center
Thu 04:13:49 PM 39.1539 -97.4822 257° West 364 419 43,000  Level Kansas City Center
Thu 04:14:50 PM 39.1314 -97.6031 257° West 363 418 43,000  Level Kansas City Center
Thu 04:15:51 PM 39.1058 -97.7431 257° West 361 415 43,000  Level Kansas City Center
Thu 04:16:54 PM 39.0836 -97.8578 256° West 361 415 43,000  Level Kansas City Center
Thu 04:17:55 PM 39.0556 -98.0086 257° West 362 417 43,000  Level Kansas City Center
Thu 04:18:59 PM 39.0311 -98.1361 256° West 365 420 43,000  Level Kansas City Center
Thu 04:20:00 PM 39.0086 -98.2594 257° West 360 414 43,000  Level Kansas City Center
Thu 04:21:03 PM 38.9842 -98.3850 256° West 363 418 43,000  Level Kansas City Center
Thu 04:22:05 PM 38.9606 -98.5117 257° West 364 419 43,000  Level Kansas City Center
Thu 04:23:05 PM 38.9364 -98.6378 256° West 365 420 43,000  Level Kansas City Center
Thu 04:24:09 PM 38.9064 -98.7894 256° West 366 421 43,000  Level Kansas City Center
Thu 04:25:09 PM 38.8822 -98.9156 256° West 365 420 43,000  Level Kansas City Center
Thu 04:26:14 PM 38.8569 -99.0411 256° West 365 420 43,000  Level Kansas City Center
Thu 04:27:14 PM 38.8319 -99.1669 256° West 365 420 43,000  Level Kansas City Center
Thu 04:28:15 PM 38.8072 -99.2919 256° West 364 419 43,000  Level Kansas City Center
Thu 04:29:18 PM 38.7819 -99.4181 256° West 364 419 43,000  Level Kansas City Center
Thu 04:30:19 PM 38.7528 -99.5611 255° West 364 419 43,000  Level Kansas City Center
Thu 04:31:22 PM 38.7244 -99.7008 255° West 363 418 43,000  Level Kansas City Center
Thu 04:32:24 PM 38.6994 -99.8192 255° West 362 417 43,000  Level Kansas City Center
Thu 04:33:28 PM 38.6722 -99.9594 256° West 363 418 43,000  Level Kansas City Center
Thu 04:34:29 PM 38.6469 -100.0783 255° West 363 418 43,000  Level Kansas City Center
Thu 04:35:30 PM 38.6178 -100.2144 255° West 359 413 43,000  Level Kansas City Center
Thu 04:36:31 PM 38.5928 -100.3336 255° West 361 415 43,000  Level Kansas City Center
Thu 04:37:35 PM 38.5639 -100.4703 255° West 359 413 43,000  Level Kansas City Center
Thu 04:38:36 PM 38.5381 -100.5894 255° West 362 417 43,000  Level Kansas City Center
Thu 04:39:39 PM 38.5100 -100.7272 255° West 361 415 43,000  Level Kansas City Center
Thu 04:40:40 PM 38.4836 -100.8464 254° West 364 419 43,000  Level Kansas City Center
Thu 04:41:52 PM 38.4492 -101.0047 255° West 366 421 43,000  Level Denver Center
Thu 04:42:54 PM 38.4222 -101.1231 254° West 367 422 43,000  Level Denver Center
Thu 04:43:56 PM 38.3922 -101.2622 255° West 367 422 43,000  Level Denver Center
Thu 04:45:10 PM 38.3661 -101.3800 254° West 364 419 43,000  Level Denver Center
Thu 04:46:12 PM 38.3317 -101.5364 254° West 362 417 43,000  Level Denver Center
Thu 04:47:14 PM 38.3056 -101.6539 254° West 362 417 43,000  Level Denver Center
Thu 04:48:16 PM 38.2756 -101.7900 254° West 359 413 43,000  Level Denver Center
Thu 04:49:18 PM 38.2492 -101.9061 254° West 359 413 43,000  Level Denver Center
Thu 04:50:20 PM 38.2225 -102.0222 254° West 358 412 43,000  Level Denver Center
Thu 04:51:23 PM 38.1911 -102.1578 254° West 361 415 43,000  Level Denver Center
Thu 04:52:25 PM 38.1606 -102.2931 254° West 357 411 43,000  Level Denver Center
Thu 04:53:27 PM 38.1339 -102.4094 254° West 358 412 43,000  Level Denver Center
Thu 04:54:29 PM 38.1011 -102.5456 253° West 360 414 43,000 97 Level Denver Center
Thu 04:55:31 PM 38.0747 -102.6622 254° West 362 417 43,200 339 Climbing Denver Center
Thu 04:56:33 PM 38.0425 -102.7981 253° West 361 415 43,700 484 Climbing Denver Center
Thu 04:57:35 PM 38.0156 -102.9114 253° West 364 419 44,200 484 Climbing Denver Center
Thu 04:58:37 PM 37.9847 -103.0506 254° West 367 422 44,700 384 Climbing Denver Center
Thu 04:59:40 PM 37.9556 -103.1692 253° West 368 423 45,000 144 Climbing Denver Center
Thu 05:00:42 PM 37.9222 -103.3108 253° West 375 432 45,000  Level Denver Center
Thu 05:01:44 PM 37.8931 -103.4314 253° West 374 430 45,000  Level Denver Center
Thu 05:02:46 PM 37.8503 -103.5658 248° West 372 428 45,000  Level Denver Center
Thu 05:03:49 PM 37.7989 -103.6717 238° Southwest 369 425 45,000  Level Denver Center
Thu 05:04:51 PM 37.7525 -103.7994 245° Southwest 359 413 45,000  Level Denver Center
Thu 05:05:53 PM 37.7267 -103.9128 254° West 353 406 45,000  Level Denver Center
Thu 05:06:55 PM 37.6939 -104.0450 253° West 361 415 45,000  Level Denver Center
Thu 05:07:57 PM 37.6603 -104.1767 252° West 357 411 45,000  Level Denver Center
Thu 05:09:11 PM 37.6269 -104.3069 252° West 354 407 45,000  Level Denver Center
Thu 05:10:13 PM 37.5939 -104.4394 253° West 356 410 45,000  Level Denver Center
Thu 05:11:15 PM 37.5658 -104.5544 253° West 359 413 45,000  Level Denver Center
Thu 05:12:18 PM 37.5319 -104.6886 252° West 360 414 45,000  Level Denver Center
Thu 05:13:20 PM 37.5025 -104.8039 252° West 361 415 45,000  Level Denver Center
Thu 05:14:22 PM 37.4689 -104.9386 253° West 362 417 45,000  Level Denver Center
Thu 05:15:24 PM 37.4403 -105.0547 253° West 364 419 45,000  Level Denver Center
Thu 05:16:26 PM 37.4053 -105.1931 252° West 364 419 45,000  Level Denver Center
Thu 05:17:28 PM 37.3747 -105.3089 252° West 364 419 45,000  Level Denver Center
Thu 05:18:30 PM 37.3400 -105.4439 252° West 364 419 45,000  Level Denver Center
Thu 05:19:32 PM 37.3156 -105.5417 253° West 366 421 45,000  Level Denver Center
Thu 05:20:34 PM 37.2758 -105.6936 252° West 367 422 45,000  Level Denver Center
Thu 05:21:36 PM 37.2450 -105.8089 251° West 366 421 45,000  Level Denver Center
Thu 05:22:38 PM 37.2133 -105.9283 252° West 367 422 45,000  Level Denver Center
Thu 05:23:40 PM 37.1772 -106.0642 252° West 368 423 45,000  Level Denver Center
Thu 05:24:42 PM 37.1461 -106.1803 251° West 367 422 45,000  Level Denver Center
Thu 05:25:44 PM 37.1108 -106.3175 252° West 369 425 45,000  Level Denver Center
Thu 05:26:46 PM 37.0797 -106.4353 252° West 372 428 45,000  Level Denver Center
Thu 05:27:49 PM 37.0433 -106.5722 252° West 371 427 45,000  Level Denver Center
Thu 05:28:51 PM 37.0108 -106.6886 251° West 370 426 45,000  Level Denver Center
Thu 05:29:53 PM 36.9742 -106.8264 252° West 374 430 45,000  Level Denver Center
Thu 05:30:55 PM 36.9419 -106.9431 251° West 372 428 45,000  Level Denver Center
Thu 05:31:57 PM 36.9058 -107.0794 252° West 372 428 45,000  Level Denver Center
Thu 05:33:11 PM 36.8733 -107.1964 251° West 373 429 45,000  Level Denver Center
Thu 05:34:13 PM 36.8297 -107.3525 251° West 373 429 45,000  Level Denver Center
Thu 05:35:15 PM 36.7983 -107.4692 251° West 372 428 45,000  Level Denver Center
Thu 05:36:17 PM 36.7600 -107.6044 251° West 371 427 45,000  Level Denver Center
Thu 05:37:19 PM 36.7275 -107.7217 251° West 373 429 45,000  Level Denver Center
Thu 05:38:22 PM 36.6889 -107.8581 251° West 375 432 45,000  Level Denver Center
Thu 05:39:24 PM 36.6553 -107.9736 250° West 372 428 45,000  Level Denver Center
Thu 05:40:26 PM 36.6175 -108.1100 251° West 372 428 45,000  Level Denver Center
Thu 05:42:30 PM 36.5456 -108.3608 250° West 372 428 45,000  Level Denver Center
Thu 05:43:32 PM 36.5117 -108.4778 250° West 375 432 45,000  Level Denver Center
Thu 05:44:34 PM 36.4725 -108.6136 250° West 375 432 45,000  Level Denver Center
Thu 05:45:36 PM 36.4400 -108.7289 251° West 372 428 45,000  Level Denver Center
Thu 05:47:40 PM 36.3664 -108.9789 250° West 374 430 45,000  Level Denver Center
Thu 05:48:42 PM 36.3267 -109.1125 250° West 373 429 45,000  Level Denver Center
Thu 05:49:44 PM 36.2917 -109.2272 249° West 373 429 45,000  Level Denver Center
Thu 05:50:46 PM 36.2511 -109.3608 249° West 374 430 45,000  Level Denver Center
Thu 05:51:48 PM 36.2164 -109.4758 250° West 373 429 45,000  Level Denver Center
Thu 05:52:50 PM 36.1761 -109.6097 250° West 372 428 45,000  Level Denver Center
Thu 05:53:52 PM 36.1411 -109.7253 249° West 375 432 45,000  Level Denver Center
Thu 05:54:54 PM 36.0997 -109.8592 249° West 374 430 45,000  Level Denver Center
Thu 05:55:56 PM 36.0656 -109.9750 250° West 375 432 45,000  Level Denver Center
Thu 05:56:59 PM 36.0236 -110.1086 249° West 374 430 45,000  Level Denver Center
Thu 05:58:01 PM 35.9908 -110.2192 250° West 373 429 45,000  Level Denver Center
Thu 06:00:05 PM 35.9158 -110.4592 249° West 375 432 45,000  Level Denver Center
Thu 06:01:07 PM 35.8711 -110.6036 249° West 375 432 45,000  Level Denver Center
Thu 06:02:24 PM 35.8203 -110.7581 248° West 373 429 45,000  Level Albuquerque Center
Thu 06:03:26 PM 35.7839 -110.8731 249° West 375 432 45,000  Level Albuquerque Center
Thu 06:04:27 PM 35.7489 -110.9878 249° West 375 432 45,000  Level Albuquerque Center
Thu 06:05:29 PM 35.7067 -111.1231 249° West 379 436 45,000  Level Albuquerque Center
Thu 06:06:31 PM 35.6703 -111.2392 249° West 380 437 45,000  Level Albuquerque Center
Thu 06:07:33 PM 35.6272 -111.3739 249° West 380 437 45,000  Level Albuquerque Center
Thu 06:08:35 PM 35.5883 -111.4961 249° West 382 440 45,000  Level Albuquerque Center
Thu 06:09:37 PM 35.5494 -111.6172 248° West 383 441 45,000  Level Albuquerque Center
Thu 06:10:38 PM 35.5106 -111.7367 248° West 380 437 45,000  Level Albuquerque Center
Thu 06:11:40 PM 35.4703 -111.8569 248° West 382 440 45,000  Level Albuquerque Center
Thu 06:12:42 PM 35.4308 -111.9781 248° West 384 442 45,000  Level Albuquerque Center
Thu 06:13:44 PM 35.3847 -112.1233 249° West 383 441 45,000  Level Albuquerque Center
Thu 06:14:45 PM 35.3444 -112.2442 248° West 385 443 45,000  Level Albuquerque Center
Thu 06:15:47 PM 35.3044 -112.3664 248° West 387 445 45,000  Level Albuquerque Center
Thu 06:16:49 PM 35.2642 -112.4867 248° West 386 444 45,000  Level Albuquerque Center
Thu 06:17:51 PM 35.2231 -112.6086 248° West 386 444 45,000  Level Albuquerque Center
Thu 06:18:53 PM 35.1811 -112.7297 247° West 386 444 45,000  Level Albuquerque Center
Thu 06:19:54 PM 35.1403 -112.8544 248° West 390 449 45,000  Level Albuquerque Center
Thu 06:20:24 PM 35.1144 -112.9286 247° West 394 453 45,000  Level Los Angeles Center
Thu 06:20:56 PM 35.0978 -112.9781 248° West 391 450 45,000  Level Albuquerque Center
Thu 06:21:58 PM 35.0486 -113.1244 248° West 388 447 45,000  Level Albuquerque Center
Thu 06:22:28 PM 35.0325 -113.1736 248° West 389 448 45,000  Level Los Angeles Center
Thu 06:23:31 PM 34.9911 -113.2950 247° West 389 448 45,000  Level Los Angeles Center
Thu 06:24:33 PM 34.9414 -113.4400 247° West 389 448 45,000  Level Los Angeles Center
Thu 06:25:35 PM 34.9000 -113.5606 247° West 388 447 45,000  Level Los Angeles Center
Thu 06:26:37 PM 34.8589 -113.6814 248° West 389 448 45,000  Level Los Angeles Center
Thu 06:27:07 PM 34.8414 -113.7303 246° West 388 447 45,000  Level Albuquerque Center
Thu 06:28:08 PM 34.7922 -113.8742 247° West 387 445 45,000  Level Albuquerque Center
Thu 06:28:41 PM 34.7772 -113.9225 249° West 390 449 45,000  Level Los Angeles Center
Thu 06:29:43 PM 34.7267 -114.0633 246° West 382 440 45,000  Level Los Angeles Center
Thu 06:30:45 PM 34.6836 -114.1847 247° West 388 447 45,000  Level Los Angeles Center
Thu 06:31:47 PM 34.6469 -114.2922 248° West 388 447 45,000 -48 Level Los Angeles Center
Thu 06:32:50 PM 34.5964 -114.4356 247° West 387 445 44,900 -432 Descending Los Angeles Center
Thu 06:33:52 PM 34.5533 -114.5586 247° West 394 453 44,100 -774 Descending Los Angeles Center
Thu 06:34:54 PM 34.5089 -114.6831 247° West 402 463 43,300 -726 Descending Los Angeles Center
Thu 06:35:56 PM 34.4661 -114.8039 247° West 395 455 42,600 -726 Descending Los Angeles Center
Thu 06:36:58 PM 34.4236 -114.9228 247° West 388 447 41,800 -774 Descending Los Angeles Center
Thu 06:38:00 PM 34.3794 -115.0450 246° West 394 453 41,000 -871 Descending Los Angeles Center
Thu 06:39:02 PM 34.3264 -115.1911 246° West 397 457 40,000 -794 Descending Los Angeles Center
Thu 06:40:16 PM 34.2814 -115.3161 246° West 404 465 39,200 -788 Descending Los Angeles Center
Thu 06:41:19 PM 34.2269 -115.4661 246° West 408 470 38,200 -864 Descending Los Angeles Center
Thu 06:42:21 PM 34.1869 -115.5983 250° West 419 482 37,400 -774 Descending Los Angeles Center
Thu 06:43:23 PM 34.1564 -115.7336 255° West 420 483 36,600 -968 Descending Los Angeles Center
Thu 06:44:25 PM 34.1189 -115.8942 254° West 418 481 35,400 -1,935 Descending Los Angeles Center
Thu 06:45:27 PM 34.0875 -116.0264 254° West 414 476 32,600 -2,855 Descending Los Angeles Center
Thu 06:46:29 PM 34.0547 -116.1628 254° West 421 484 29,500 -3,000 Descending Los Angeles Center
Thu 06:47:31 PM 34.0219 -116.3017 254° West 431 496 26,400 -3,048 Descending Los Angeles Center
Thu 06:48:33 PM 33.9886 -116.4389 254° West 430 495 23,200 -3,264 Descending Los Angeles Center
Thu 06:49:36 PM 33.9519 -116.5939 254° West 407 468 19,600 -3,120 Descending Los Angeles Center
Thu 06:50:38 PM 33.9208 -116.7206 254° West 401 461 16,700 -2,710 Descending Los Angeles Center
Thu 06:51:40 PM 33.8914 -116.8392 253° West 386 444 14,000 -1,935 Descending Los Angeles Center
Thu 06:52:42 PM 33.8733 -116.9547 259° West 364 419 12,700 -1,258 Descending Los Angeles Center
Thu 06:53:44 PM 33.8572 -117.0692 260° West 353 406 11,400 -1,145 Descending Los Angeles Center
Thu 06:54:32 PM 33.8333 -117.1833 256° West 350 403 10,600 -882 Descending Southern California TRACON
Thu 06:55:26 PM 33.8333 -117.2667 270° West 307 353 9,900 -783 Descending Southern California TRACON
Thu 06:56:27 PM 33.8167 -117.3667 259° West 282 325 9,100 -843 Descending Southern California TRACON
Thu 06:57:27 PM 33.8000 -117.4500 256° West 258 297 8,200 -650 Descending Southern California TRACON
Thu 06:58:27 PM 33.7833 -117.5333 256° West 238 274 7,800 -700 Descending Southern California TRACON
Thu 06:59:27 PM 33.7667 -117.6000 253° West 235 270 6,800 -800 Descending Southern California TRACON
Thu 06:59:57 PM 33.7658 -117.6297 268° West 234 269 6,600 -300 Descending Los Angeles Center
Thu 07:00:27 PM 33.7500 -117.6833 250° West 235 270 6,500 -813 Descending Southern California TRACON
Thu 07:01:33 PM 33.7167 -117.7500 239° Southwest 226 260 5,300 -1,190 Descending Southern California TRACON
Thu 07:02:33 PM 33.7000 -117.8333 257° West 225 259 4,000 -694 Descending Southern California TRACON
Thu 07:03:34 PM 33.6833 -117.9000 253° West 224 258 3,900 -470 Descending Southern California TRACON
Thu 07:04:28 PM 33.6833 -117.9667 270° West 226 260 3,100 -526 Descending Southern California TRACON
Thu 07:05:28 PM 33.7000 -118.0167 292° West 195 224 2,900 -550 Descending Southern California TRACON
Thu 07:06:28 PM 33.7500 -118.0667 320° Northwest 185 213 2,000 -900 Descending Southern California TRACON
Thu 07:07:28 PM 33.7667 -118.1000 301° West 155 178 1,100 -800 Descending Southern California TRACON
Thu 07:08:28 PM 33.8000 -118.1333 320° Northwest 125 144 400 7,167 Descending Southern California TRACON
Thu 07:09:16 PM 33.8156 -118.1489 320° Northwest 131 151 14,000 17,000 Climbing Los Angeles Center
Thu 07:11:00 PM 33.8167 -118.1500 292° West  Level FlightAware Approximate
Thu 07:18:00 PM 33.8177 -118.1517 292° West  Level Estimated

Login

Don't have an account? Register now (free) for customized features, flight alerts, and more!